createdAt,value
2023-05-25T00:01:26.325Z,57.07
2023-05-25T00:03:53.550Z,57.34
2023-05-25T00:06:26.214Z,57.07
2023-05-25T00:08:52.493Z,57.32
2023-05-25T00:11:20.487Z,57.21
2023-05-25T00:13:46.770Z,57.09
2023-05-25T00:16:13.222Z,57.22
2023-05-25T00:18:41.846Z,57.10
2023-05-25T00:21:17.597Z,57.21
2023-05-25T00:23:53.832Z,57.30
2023-05-25T00:26:30.056Z,57.16
2023-05-25T00:28:56.792Z,57.27
2023-05-25T00:31:24.863Z,57.11
2023-05-25T00:33:51.187Z,57.11
2023-05-25T00:36:18.274Z,57.00
2023-05-25T00:38:44.617Z,57.00
2023-05-25T00:41:14.704Z,57.28
2023-05-25T00:43:43.494Z,57.29
2023-05-25T00:46:09.865Z,57.22
2023-05-25T00:48:40.216Z,56.92
2023-05-25T00:51:06.546Z,57.21
2023-05-25T00:53:35.456Z,56.93
2023-05-25T00:56:01.700Z,57.01
2023-05-25T00:58:28.011Z,56.92
2023-05-25T01:00:54.298Z,57.30
2023-05-25T01:03:22.257Z,57.15
2023-05-25T01:05:48.636Z,56.90
2023-05-25T01:08:14.872Z,56.98
2023-05-25T01:10:45.607Z,57.17
2023-05-25T01:13:14.816Z,57.13
2023-05-25T01:15:46.331Z,56.97
2023-05-25T01:18:13.875Z,56.98
2023-05-25T01:20:42.171Z,56.91
2023-05-25T01:23:08.504Z,56.67
2023-05-25T01:25:34.763Z,57.04
2023-05-25T01:28:06.540Z,57.10
2023-05-25T01:30:32.868Z,57.07
2023-05-25T01:33:02.221Z,56.64
2023-05-25T01:35:35.392Z,56.61
2023-05-25T01:38:01.712Z,56.75
2023-05-25T01:40:27.945Z,56.80
2023-05-25T01:42:57.703Z,56.97
2023-05-25T01:45:30.356Z,56.86
2023-05-25T01:48:01.363Z,57.01
2023-05-25T01:50:27.727Z,56.84
2023-05-25T01:52:59.130Z,56.56
2023-05-25T01:55:26.495Z,56.79
2023-05-25T01:57:56.174Z,56.52
2023-05-25T02:00:22.440Z,56.59
2023-05-25T02:02:48.791Z,56.71
2023-05-25T02:05:15.513Z,56.63
2023-05-25T02:07:41.805Z,56.50
2023-05-25T02:10:10.067Z,56.53
2023-05-25T02:12:36.406Z,56.58
2023-05-25T02:15:03.644Z,56.63
2023-05-25T02:17:30.936Z,56.46
2023-05-25T02:19:57.280Z,56.54
2023-05-25T02:22:23.569Z,56.35
2023-05-25T02:24:49.873Z,56.54
2023-05-25T02:27:16.155Z,56.33
2023-05-25T02:29:42.478Z,56.57
2023-05-25T02:32:09.051Z,56.58
2023-05-25T02:34:35.310Z,56.42
2023-05-25T02:37:05.580Z,56.57
2023-05-25T02:39:31.844Z,55.99
2023-05-25T02:42:01.688Z,56.19
2023-05-25T02:44:28.026Z,56.36
2023-05-25T02:46:56.497Z,56.11
2023-05-25T02:49:22.936Z,56.47
2023-05-25T02:51:50.788Z,56.29
2023-05-25T02:54:21.438Z,56.32
2023-05-25T02:56:50.883Z,56.30
2023-05-25T02:59:17.147Z,55.98
2023-05-25T03:01:43.393Z,55.95
2023-05-25T03:04:09.759Z,56.00
2023-05-25T03:06:37.509Z,56.40
2023-05-25T03:09:03.781Z,55.89
2023-05-25T03:11:34.587Z,55.64
2023-05-25T03:14:03.645Z,55.69
2023-05-25T03:16:29.979Z,56.02
2023-05-25T03:18:56.241Z,56.01
2023-05-25T03:21:24.112Z,56.22
2023-05-25T03:23:50.463Z,56.02
2023-05-25T03:26:16.790Z,55.75
2023-05-25T03:28:46.895Z,55.80
2023-05-25T03:31:15.379Z,55.96
2023-05-25T03:33:41.631Z,55.93
2023-05-25T03:36:07.917Z,55.73
2023-05-25T03:38:34.139Z,56.30
2023-05-25T03:41:00.398Z,56.03
2023-05-25T03:43:29.942Z,55.68
2023-05-25T03:45:59.237Z,56.17
2023-05-25T03:48:32.907Z,55.75
2023-05-25T03:50:59.207Z,55.76
2023-05-25T03:53:29.851Z,55.48
2023-05-25T03:55:56.122Z,55.96
2023-05-25T03:58:23.099Z,55.99
2023-05-25T04:00:49.355Z,56.26
2023-05-25T04:03:15.762Z,55.66
2023-05-25T04:05:42.312Z,55.86
2023-05-25T04:08:08.659Z,55.75
2023-05-25T04:10:34.991Z,55.86
2023-05-25T04:13:09.054Z,56.00
2023-05-25T04:15:35.284Z,56.20
2023-05-25T04:18:02.980Z,56.12
2023-05-25T04:20:34.456Z,56.08
2023-05-25T04:23:06.337Z,55.98
2023-05-25T04:25:32.705Z,56.12
2023-05-25T04:28:02.372Z,55.99
2023-05-25T04:30:31.163Z,56.39
2023-05-25T04:32:57.422Z,55.96
2023-05-25T04:35:23.774Z,56.00
2023-05-25T04:37:53.643Z,55.90
2023-05-25T04:40:20.222Z,56.47
2023-05-25T04:42:46.501Z,56.58
2023-05-25T04:45:12.735Z,56.16
2023-05-25T04:47:45.939Z,56.12
2023-05-25T04:50:12.744Z,56.67
2023-05-25T04:52:39.006Z,56.14
2023-05-25T04:55:08.034Z,56.42
2023-05-25T04:57:37.657Z,56.40
2023-05-25T05:00:05.615Z,56.73
2023-05-25T05:02:35.624Z,56.68
2023-05-25T05:05:02.813Z,56.51
2023-05-25T05:07:29.056Z,56.51
2023-05-25T05:09:57.791Z,56.47
2023-05-25T05:12:24.091Z,56.38
2023-05-25T05:14:50.336Z,56.53
2023-05-25T05:17:16.644Z,56.74
2023-05-25T05:19:43.188Z,56.14
2023-05-25T05:22:11.979Z,56.84
2023-05-25T05:24:43.876Z,56.60
2023-05-25T05:27:16.507Z,56.63
2023-05-25T05:29:42.889Z,56.45
2023-05-25T05:32:09.155Z,56.90
2023-05-25T05:34:35.405Z,56.65
2023-05-25T05:37:01.701Z,56.56
2023-05-25T05:39:28.133Z,56.42
2023-05-25T05:41:58.135Z,56.96
2023-05-25T05:44:29.240Z,56.77
2023-05-25T05:46:55.916Z,56.85
2023-05-25T05:49:26.497Z,56.46
2023-05-25T05:51:52.754Z,57.02
2023-05-25T05:54:18.992Z,55.95
2023-05-25T05:56:45.226Z,56.77
2023-05-25T05:59:17.475Z,56.83
2023-05-25T06:01:43.917Z,56.70
2023-05-25T06:04:15.008Z,56.38
2023-05-25T06:06:41.478Z,56.40
2023-05-25T06:09:08.057Z,56.56
2023-05-25T06:11:34.380Z,56.52
2023-05-25T06:14:00.650Z,56.82
2023-05-25T06:16:27.002Z,56.83
2023-05-25T06:18:53.364Z,56.74
2023-05-25T06:21:19.599Z,56.91
2023-05-25T06:23:49.893Z,56.79
2023-05-25T06:26:16.239Z,56.60
2023-05-25T06:28:42.541Z,56.93
2023-05-25T06:31:08.799Z,56.71
2023-05-25T06:33:35.062Z,56.49
2023-05-25T06:36:01.381Z,56.71
2023-05-25T06:38:27.636Z,56.78
2023-05-25T06:40:57.051Z,57.03
2023-05-25T06:43:23.858Z,56.60
2023-05-25T06:45:53.239Z,56.72
2023-05-25T06:48:21.293Z,57.01
2023-05-25T06:50:47.618Z,56.71
2023-05-25T06:53:16.692Z,56.69
2023-05-25T06:55:46.346Z,56.75
2023-05-25T06:58:12.772Z,56.95
2023-05-25T07:00:39.134Z,57.02
2023-05-25T07:03:15.367Z,56.96
2023-05-25T07:05:41.784Z,56.72
2023-05-25T07:08:10.499Z,56.87
2023-05-25T07:10:38.901Z,56.99
2023-05-25T07:13:05.159Z,56.81
2023-05-25T07:15:31.461Z,56.83
2023-05-25T07:18:03.858Z,56.89
2023-05-25T07:20:30.180Z,56.88
2023-05-25T07:22:56.830Z,56.82
2023-05-25T07:25:23.168Z,57.03
2023-05-25T07:27:54.972Z,57.08
2023-05-25T07:30:22.440Z,57.09
2023-05-25T07:32:48.726Z,57.13
2023-05-25T07:35:15.070Z,57.16
2023-05-25T07:37:46.410Z,57.14
2023-05-25T07:40:13.012Z,57.08
2023-05-25T07:42:39.973Z,57.13
2023-05-25T07:45:06.335Z,57.27
2023-05-25T07:47:32.950Z,57.49
2023-05-25T07:49:59.781Z,57.41
2023-05-25T07:52:27.620Z,57.15
2023-05-25T07:54:55.349Z,57.46
2023-05-25T07:57:21.702Z,57.44
2023-05-25T07:59:48.250Z,57.21
2023-05-25T08:02:16.946Z,57.54
2023-05-25T08:04:43.408Z,57.55
2023-05-25T08:07:09.721Z,57.24
2023-05-25T08:09:43.017Z,57.39
2023-05-25T08:12:30.534Z,57.36
2023-05-25T08:14:55.563Z,57.39
2023-05-25T08:17:21.868Z,57.51
2023-05-25T08:19:48.138Z,57.38
2023-05-25T08:22:20.063Z,57.46
2023-05-25T08:24:46.466Z,57.47
2023-05-25T08:27:13.270Z,57.60
2023-05-25T08:29:46.397Z,57.63
2023-05-25T08:32:15.918Z,57.71
2023-05-25T08:34:42.169Z,57.50
2023-05-25T08:37:08.829Z,57.54
2023-05-25T08:39:36.840Z,57.75
2023-05-25T08:42:03.409Z,57.92
2023-05-25T08:44:29.636Z,57.35
2023-05-25T08:46:55.873Z,57.77
2023-05-25T08:49:22.240Z,57.52
2023-05-25T08:51:49.378Z,57.74
2023-05-25T08:54:15.652Z,57.75
2023-05-25T08:56:41.994Z,57.49
2023-05-25T08:59:08.263Z,57.81
2023-05-25T09:01:37.936Z,57.80
2023-05-25T09:04:05.132Z,57.62
2023-05-25T09:06:34.716Z,57.73
2023-05-25T09:09:04.308Z,57.54
2023-05-25T09:11:39.338Z,57.52
2023-05-25T09:14:07.037Z,57.63
2023-05-25T09:16:36.247Z,57.85
2023-05-25T09:19:07.380Z,58.28
2023-05-25T09:21:36.323Z,58.15
2023-05-25T09:24:02.582Z,58.35
2023-05-25T09:26:32.743Z,58.36
2023-05-25T09:28:59.030Z,58.56
2023-05-25T09:31:25.368Z,58.37
2023-05-25T09:33:51.818Z,58.50
2023-05-25T09:36:19.188Z,58.94
2023-05-25T09:38:45.812Z,58.63
2023-05-25T09:41:14.257Z,58.79
2023-05-25T09:43:51.652Z,58.99
2023-05-25T09:46:28.770Z,59.05
2023-05-25T09:48:59.529Z,58.80
2023-05-25T09:51:28.918Z,58.87
2023-05-25T09:54:00.966Z,58.78
2023-05-25T09:56:33.607Z,58.86
2023-05-25T09:59:02.596Z,58.62
2023-05-25T10:01:28.975Z,59.01
2023-05-25T10:04:04.288Z,58.96
2023-05-25T10:06:35.388Z,58.80
2023-05-25T10:09:01.641Z,59.02
2023-05-25T10:11:29.938Z,58.85
2023-05-25T10:13:56.269Z,58.75
2023-05-25T10:16:22.581Z,58.65
2023-05-25T10:18:52.928Z,58.78
2023-05-25T10:21:19.256Z,59.05
2023-05-25T10:23:47.732Z,59.18
2023-05-25T10:26:14.039Z,58.94
2023-05-25T10:28:48.657Z,59.17
2023-05-25T10:31:21.561Z,59.03
2023-05-25T10:33:52.055Z,59.24
2023-05-25T10:36:19.607Z,59.35
2023-05-25T10:38:48.906Z,59.60
2023-05-25T10:41:16.560Z,59.59
2023-05-25T10:43:48.926Z,59.50
2023-05-25T10:46:16.472Z,59.49
2023-05-25T10:48:47.398Z,59.57
2023-05-25T10:51:13.691Z,59.53
2023-05-25T10:53:41.729Z,59.61
2023-05-25T10:56:09.734Z,59.86
2023-05-25T10:58:36.260Z,59.94
2023-05-25T11:01:02.712Z,59.51
2023-05-25T11:03:31.374Z,59.58
2023-05-25T11:06:04.801Z,59.85
2023-05-25T11:08:31.181Z,59.81
2023-05-25T11:10:57.610Z,59.87
2023-05-25T11:13:25.932Z,59.61
2023-05-25T11:15:52.233Z,59.75
2023-05-25T11:18:18.515Z,59.51
2023-05-25T11:20:47.901Z,59.68
2023-05-25T11:23:14.525Z,59.61
2023-05-25T11:25:40.834Z,59.87
2023-05-25T11:28:10.047Z,60.04
2023-05-25T11:30:38.785Z,60.04
2023-05-25T11:33:11.371Z,60.00
2023-05-25T11:35:45.065Z,59.95
2023-05-25T11:38:16.304Z,58.66
2023-05-25T11:40:45.360Z,58.96
2023-05-25T11:43:14.561Z,57.96
2023-05-25T11:45:40.855Z,58.03
2023-05-25T11:48:08.469Z,58.34
2023-05-25T11:50:39.969Z,58.47
2023-05-25T11:53:06.621Z,58.35
2023-05-25T11:55:32.906Z,58.45
2023-05-25T11:57:59.137Z,58.86
2023-05-25T12:00:25.688Z,58.70
2023-05-25T12:02:51.981Z,58.87
2023-05-25T12:05:19.914Z,58.48
2023-05-25T12:07:46.676Z,58.66
2023-05-25T12:10:13.039Z,58.46
2023-05-25T12:12:44.603Z,58.44
2023-05-25T12:15:10.900Z,58.59
2023-05-25T12:17:37.230Z,58.62
2023-05-25T12:20:06.463Z,58.61
2023-05-25T12:22:38.454Z,59.00
2023-05-25T12:25:04.749Z,59.14
2023-05-25T12:27:31.048Z,59.19
2023-05-25T12:30:00.749Z,59.04
2023-05-25T12:32:27.043Z,59.17
2023-05-25T12:34:53.318Z,59.38
2023-05-25T12:37:20.154Z,59.14
2023-05-25T12:39:48.347Z,59.50
2023-05-25T12:42:14.605Z,59.29
2023-05-25T12:44:41.585Z,59.32
2023-05-25T12:47:08.949Z,59.23
2023-05-25T12:49:35.458Z,59.16
2023-05-25T12:52:01.764Z,59.30
2023-05-25T12:54:28.171Z,59.37
2023-05-25T12:56:54.793Z,59.60
2023-05-25T12:59:21.045Z,59.82
2023-05-25T13:01:47.499Z,59.78
2023-05-25T13:04:13.914Z,59.55
2023-05-25T13:06:40.310Z,59.91
2023-05-25T13:09:06.569Z,60.04
2023-05-25T13:11:32.855Z,59.78
2023-05-25T13:14:04.544Z,59.60
2023-05-25T13:16:32.353Z,59.50
2023-05-25T13:18:58.708Z,59.71
2023-05-25T13:21:25.027Z,59.55
2023-05-25T13:23:51.899Z,59.53
2023-05-25T13:26:18.154Z,59.63
2023-05-25T13:28:50.957Z,59.74
2023-05-25T13:31:17.310Z,59.39
2023-05-25T13:33:43.572Z,59.69
2023-05-25T13:36:09.829Z,59.60
2023-05-25T13:38:38.917Z,59.31
2023-05-25T13:41:09.853Z,59.53
2023-05-25T13:43:36.256Z,59.47
2023-05-25T13:46:08.749Z,59.81
2023-05-25T13:48:38.760Z,59.57
2023-05-25T13:51:05.247Z,59.55
2023-05-25T13:53:32.890Z,59.31
2023-05-25T13:55:59.178Z,59.60
2023-05-25T13:58:28.382Z,59.54
2023-05-25T14:00:54.856Z,59.72
2023-05-25T14:03:21.220Z,59.81
2023-05-25T14:05:50.355Z,60.09
2023-05-25T14:08:18.573Z,60.21
2023-05-25T14:10:44.962Z,60.10
2023-05-25T14:13:13.528Z,59.87
2023-05-25T14:15:42.140Z,60.40
2023-05-25T14:18:08.646Z,60.19
2023-05-25T14:20:39.158Z,60.49
2023-05-25T14:23:05.827Z,60.56
2023-05-25T14:25:33.569Z,60.63
2023-05-25T14:28:05.435Z,60.47
2023-05-25T14:30:32.345Z,60.69
2023-05-25T14:32:58.769Z,60.96
2023-05-25T14:35:27.122Z,60.56
2023-05-25T14:37:59.210Z,60.93
2023-05-25T14:40:25.518Z,60.75
2023-05-25T14:42:51.875Z,60.66
2023-05-25T14:45:18.133Z,60.82
2023-05-25T14:47:49.720Z,60.64
2023-05-25T14:50:17.269Z,60.84
2023-05-25T14:52:43.507Z,60.87
2023-05-25T14:55:09.819Z,60.68
2023-05-25T14:57:43.336Z,60.91
2023-05-25T15:00:11.367Z,60.61
2023-05-25T15:02:37.913Z,60.75
2023-05-25T15:05:04.322Z,60.80
2023-05-25T15:07:30.702Z,60.54
2023-05-25T15:10:03.553Z,60.26
2023-05-25T15:12:33.490Z,60.23
2023-05-25T15:14:59.897Z,60.09
2023-05-25T15:17:26.237Z,60.36
2023-05-25T15:19:52.682Z,59.87
2023-05-25T15:22:19.109Z,59.74
2023-05-25T15:24:45.688Z,59.72
2023-05-25T15:27:11.953Z,59.83
2023-05-25T15:29:45.776Z,59.73
2023-05-25T15:32:18.161Z,59.07
2023-05-25T15:34:45.208Z,59.81
2023-05-25T15:37:21.393Z,59.62
2023-05-25T15:39:47.651Z,59.42
2023-05-25T15:42:14.890Z,59.50
2023-05-25T15:44:41.201Z,59.67
2023-05-25T15:47:07.569Z,59.44
2023-05-25T15:49:33.862Z,59.42
2023-05-25T15:52:00.165Z,59.41
2023-05-25T15:54:33.810Z,59.38
2023-05-25T15:57:00.219Z,59.24
2023-05-25T15:59:27.180Z,59.37
2023-05-25T16:01:53.509Z,59.31
2023-05-25T16:04:25.793Z,59.25
2023-05-25T16:06:52.217Z,59.48
2023-05-25T16:09:18.881Z,59.51
2023-05-25T16:11:45.243Z,59.36
2023-05-25T16:14:11.705Z,59.24
2023-05-25T16:16:38.232Z,59.57
2023-05-25T16:19:04.583Z,59.48
2023-05-25T16:21:36.907Z,59.39
2023-05-25T16:24:03.347Z,59.37
2023-05-25T16:26:30.852Z,59.73
2023-05-25T16:29:01.010Z,59.52
2023-05-25T16:31:27.277Z,59.63
2023-05-25T16:33:53.598Z,59.86
2023-05-25T16:36:26.791Z,59.74
2023-05-25T16:38:53.187Z,59.39
2023-05-25T16:41:24.386Z,59.86
2023-05-25T16:43:53.070Z,59.65
2023-05-25T16:46:19.374Z,59.72
2023-05-25T16:48:45.621Z,59.61
2023-05-25T16:51:12.271Z,59.83
2023-05-25T16:53:38.543Z,59.58
2023-05-25T16:56:04.836Z,59.65
2023-05-25T16:58:31.096Z,59.83
2023-05-25T17:00:59.751Z,59.64
2023-05-25T17:03:27.719Z,59.69
2023-05-25T17:05:56.194Z,60.08
2023-05-25T17:08:25.596Z,59.86
2023-05-25T17:10:51.899Z,59.77
2023-05-25T17:13:18.155Z,59.69
2023-05-25T17:15:44.723Z,59.92
2023-05-25T17:18:11.663Z,60.17
2023-05-25T17:20:37.953Z,59.99
2023-05-25T17:23:07.521Z,59.96
2023-05-25T17:25:35.133Z,60.18
2023-05-25T17:28:05.431Z,59.95
2023-05-25T17:30:34.311Z,59.96
2023-05-25T17:33:05.999Z,60.35
2023-05-25T17:35:39.291Z,60.22
2023-05-25T17:38:07.493Z,60.27
2023-05-25T17:40:33.749Z,60.14
2023-05-25T17:43:00.164Z,60.35
2023-05-25T17:45:30.638Z,60.44
2023-05-25T17:47:57.000Z,60.37
2023-05-25T17:50:27.576Z,60.01
2023-05-25T17:52:53.821Z,60.46
2023-05-25T17:55:22.576Z,60.26
2023-05-25T17:57:50.092Z,60.56
2023-05-25T18:00:16.372Z,60.43
2023-05-25T18:02:46.865Z,60.70
2023-05-25T18:05:13.204Z,60.23
2023-05-25T18:07:39.507Z,60.26
2023-05-25T18:10:07.592Z,60.89
2023-05-25T18:12:33.860Z,60.69
2023-05-25T18:15:00.113Z,60.55
2023-05-25T18:17:26.903Z,60.48
2023-05-25T18:19:53.346Z,60.68
2023-05-25T18:22:23.105Z,60.33
2023-05-25T18:24:49.364Z,60.46
2023-05-25T18:27:19.294Z,60.38
2023-05-25T18:29:45.689Z,60.34
2023-05-25T18:32:11.933Z,60.48
2023-05-25T18:34:38.440Z,60.26
2023-05-25T18:37:09.248Z,60.70
2023-05-25T18:39:36.793Z,60.30
2023-05-25T18:42:05.452Z,60.69
2023-05-25T18:44:31.696Z,60.38
2023-05-25T18:46:59.530Z,60.66
2023-05-25T18:49:25.809Z,60.80
2023-05-25T18:51:54.076Z,60.59
2023-05-25T18:54:20.350Z,60.65
2023-05-25T18:56:47.302Z,60.74
2023-05-25T18:59:20.691Z,60.63
2023-05-25T19:01:53.698Z,60.79
2023-05-25T19:04:20.358Z,60.65
2023-05-25T19:06:52.187Z,60.55
2023-05-25T19:09:19.136Z,60.84
2023-05-25T19:11:45.390Z,60.59
2023-05-25T19:14:12.212Z,60.62
2023-05-25T19:16:42.452Z,60.64
2023-05-25T19:19:13.900Z,60.82
2023-05-25T19:21:50.198Z,60.66
2023-05-25T19:24:22.452Z,60.84
2023-05-25T19:26:52.986Z,60.84
2023-05-25T19:29:19.361Z,60.92
2023-05-25T19:31:45.687Z,60.70
2023-05-25T19:34:12.878Z,60.90
2023-05-25T19:36:40.450Z,60.58
2023-05-25T19:39:06.688Z,60.56
2023-05-25T19:41:36.647Z,60.66
2023-05-25T19:44:06.784Z,60.71
2023-05-25T19:46:33.276Z,61.08
2023-05-25T19:49:01.086Z,60.80
2023-05-25T19:51:28.768Z,60.82
2023-05-25T19:53:55.081Z,60.79
2023-05-25T19:56:24.192Z,60.88
2023-05-25T19:58:57.257Z,60.69
2023-05-25T20:01:23.529Z,61.08
2023-05-25T20:03:49.931Z,61.10
2023-05-25T20:06:16.267Z,60.84
2023-05-25T20:08:43.473Z,60.71
2023-05-25T20:11:11.356Z,60.89
2023-05-25T20:13:46.592Z,60.83
2023-05-25T20:16:13.019Z,61.13
2023-05-25T20:18:39.301Z,60.91
2023-05-25T20:21:10.557Z,60.75
2023-05-25T20:23:36.808Z,60.88
2023-05-25T20:26:03.341Z,61.07
2023-05-25T20:28:29.712Z,61.19
2023-05-25T20:31:01.798Z,60.87
2023-05-25T20:33:35.210Z,61.15
2023-05-25T20:36:01.463Z,60.82
2023-05-25T20:38:32.053Z,61.17
2023-05-25T20:41:01.547Z,60.87
2023-05-25T20:43:29.016Z,60.96
2023-05-25T20:45:55.384Z,61.00
2023-05-25T20:48:21.646Z,60.91
2023-05-25T20:50:50.559Z,60.83
2023-05-25T20:53:23.894Z,60.89
2023-05-25T20:55:50.138Z,60.99
2023-05-25T20:58:16.379Z,61.05
2023-05-25T21:00:42.699Z,61.05
2023-05-25T21:03:09.140Z,60.90
2023-05-25T21:05:35.488Z,60.99
2023-05-25T21:08:01.848Z,61.24
2023-05-25T21:10:28.113Z,61.15
2023-05-25T21:13:04.366Z,61.15
2023-05-25T21:15:30.602Z,60.95
2023-05-25T21:17:57.913Z,60.92
2023-05-25T21:20:29.451Z,61.17
2023-05-25T21:22:55.998Z,60.85
2023-05-25T21:25:22.427Z,61.22
2023-05-25T21:27:48.754Z,61.24
2023-05-25T21:30:15.824Z,61.04
2023-05-25T21:32:42.149Z,61.03
2023-05-25T21:35:08.449Z,61.16
2023-05-25T21:37:34.713Z,60.92
2023-05-25T21:40:00.989Z,61.01
2023-05-25T21:42:27.556Z,61.34
2023-05-25T21:44:56.289Z,61.24
2023-05-25T21:47:25.508Z,61.05
2023-05-25T21:49:52.038Z,61.21
2023-05-25T21:52:24.094Z,60.99
2023-05-25T21:54:56.978Z,61.21
2023-05-25T21:57:23.212Z,60.96
2023-05-25T21:59:51.451Z,61.21
2023-05-25T22:02:17.773Z,60.96
2023-05-25T22:04:44.075Z,61.10
2023-05-25T22:07:10.364Z,61.10
2023-05-25T22:09:36.624Z,60.99
2023-05-25T22:12:08.804Z,61.04
2023-05-25T22:14:43.154Z,61.04
2023-05-25T22:17:09.466Z,60.72
2023-05-25T22:19:35.749Z,60.52
2023-05-25T22:22:02.878Z,60.88
2023-05-25T22:24:31.222Z,60.92
2023-05-25T22:26:59.031Z,60.68
2023-05-25T22:29:27.858Z,60.73
2023-05-25T22:31:54.191Z,60.61
2023-05-25T22:34:20.510Z,60.66
2023-05-25T22:36:46.817Z,60.69
2023-05-25T22:39:16.668Z,60.12
2023-05-25T22:41:47.947Z,60.26
2023-05-25T22:44:14.643Z,60.29
2023-05-25T22:46:41.324Z,60.45
2023-05-25T22:49:09.659Z,60.24
2023-05-25T22:51:35.915Z,60.08
2023-05-25T22:54:02.415Z,60.53
2023-05-25T22:56:30.573Z,60.37
2023-05-25T22:59:00.216Z,60.13
2023-05-25T23:01:26.513Z,60.44
2023-05-25T23:03:52.997Z,60.06
2023-05-25T23:06:19.330Z,60.40
2023-05-25T23:08:50.259Z,60.25
2023-05-25T23:11:18.554Z,60.30
2023-05-25T23:13:44.877Z,60.25
2023-05-25T23:16:14.370Z,59.85
2023-05-25T23:18:42.854Z,59.91
2023-05-25T23:21:19.104Z,59.81
2023-05-25T23:23:55.343Z,60.11
2023-05-25T23:26:21.568Z,59.70
2023-05-25T23:28:50.253Z,60.26
2023-05-25T23:31:22.668Z,60.00
2023-05-25T23:33:49.251Z,59.78
2023-05-25T23:36:15.821Z,59.98
2023-05-25T23:38:42.218Z,59.99
2023-05-25T23:41:12.834Z,59.71
2023-05-25T23:43:39.534Z,59.49
2023-05-25T23:46:10.608Z,59.86
2023-05-25T23:48:37.349Z,59.57
2023-05-25T23:51:09.287Z,59.55
2023-05-25T23:53:35.590Z,59.70
2023-05-25T23:56:03.059Z,59.71
2023-05-25T23:58:34.880Z,59.49
